sensor_id;sensor_type;location;lat;lon;timestamp;P1;durP1;ratioP1;P2;durP2;ratioP2
47155;SDS011;32908;52.344;16.858;2022-09-13T06:52:46;11.23;;;8.50;;
47155;SDS011;32908;52.344;16.858;2022-09-13T06:55:14;11.53;;;8.17;;
47155;SDS011;32908;52.344;16.858;2022-09-13T06:57:42;9.43;;;8.40;;
47155;SDS011;32908;52.344;16.858;2022-09-13T07:00:11;9.83;;;8.83;;
47155;SDS011;32908;52.344;16.858;2022-09-13T07:02:40;11.57;;;8.33;;
47155;SDS011;32908;52.344;16.858;2022-09-13T07:05:08;9.87;;;8.87;;
47155;SDS011;32908;52.344;16.858;2022-09-13T07:07:36;12.47;;;8.50;;
47155;SDS011;32908;52.344;16.858;2022-09-13T07:10:05;9.77;;;8.20;;
47155;SDS011;32908;52.344;16.858;2022-09-13T07:12:34;10.73;;;8.80;;
47155;SDS011;32908;52.344;16.858;2022-09-13T07:15:02;9.30;;;8.40;;
47155;SDS011;32908;52.344;16.858;2022-09-13T07:17:31;10.10;;;8.70;;
47155;SDS011;32908;52.344;16.858;2022-09-13T07:19:58;12.27;;;9.13;;
47155;SDS011;32908;52.344;16.858;2022-09-13T07:22:26;11.23;;;8.83;;
47155;SDS011;32908;52.344;16.858;2022-09-13T07:24:54;10.60;;;8.55;;
47155;SDS011;32908;52.344;16.858;2022-09-13T07:27:22;10.00;;;8.57;;
47155;SDS011;32908;52.344;16.858;2022-09-13T07:29:50;11.47;;;8.20;;
47155;SDS011;32908;52.344;16.858;2022-09-13T07:32:18;10.27;;;8.40;;
47155;SDS011;32908;52.344;16.858;2022-09-13T07:34:46;9.70;;;8.10;;
47155;SDS011;32908;52.344;16.858;2022-09-13T07:37:15;11.87;;;8.73;;
47155;SDS011;32908;52.344;16.858;2022-09-13T07:39:42;11.17;;;8.23;;
47155;SDS011;32908;52.344;16.858;2022-09-13T07:42:10;9.10;;;7.83;;
47155;SDS011;32908;52.344;16.858;2022-09-13T07:44:38;9.10;;;8.20;;
47155;SDS011;32908;52.344;16.858;2022-09-13T07:47:06;8.97;;;7.90;;
47155;SDS011;32908;52.344;16.858;2022-09-13T07:49:34;9.00;;;7.97;;
47155;SDS011;32908;52.344;16.858;2022-09-13T07:52:01;9.83;;;8.37;;
47155;SDS011;32908;52.344;16.858;2022-09-13T07:54:29;10.27;;;7.97;;
47155;SDS011;32908;52.344;16.858;2022-09-13T07:56:57;9.70;;;7.60;;
47155;SDS011;32908;52.344;16.858;2022-09-13T07:59:25;9.10;;;7.90;;
47155;SDS011;32908;52.344;16.858;2022-09-13T08:01:53;10.47;;;7.97;;
47155;SDS011;32908;52.344;16.858;2022-09-13T08:04:22;7.80;;;7.00;;
47155;SDS011;32908;52.344;16.858;2022-09-13T08:06:50;10.60;;;8.07;;
47155;SDS011;32908;52.344;16.858;2022-09-13T08:09:18;7.83;;;6.90;;
47155;SDS011;32908;52.344;16.858;2022-09-13T08:11:47;8.83;;;7.40;;
47155;SDS011;32908;52.344;16.858;2022-09-13T08:14:18;9.23;;;7.33;;
47155;SDS011;32908;52.344;16.858;2022-09-13T08:16:47;10.40;;;6.93;;
47155;SDS011;32908;52.344;16.858;2022-09-13T08:19:15;8.10;;;7.27;;
47155;SDS011;32908;52.344;16.858;2022-09-13T08:21:44;7.67;;;6.50;;
47155;SDS011;32908;52.344;16.858;2022-09-13T08:24:13;8.80;;;6.93;;
47155;SDS011;32908;52.344;16.858;2022-09-13T08:26:42;9.00;;;6.90;;
47155;SDS011;32908;52.344;16.858;2022-09-13T08:29:10;8.40;;;6.90;;
47155;SDS011;32908;52.344;16.858;2022-09-13T08:31:39;8.80;;;6.70;;
47155;SDS011;32908;52.344;16.858;2022-09-13T08:34:07;8.37;;;6.67;;
47155;SDS011;32908;52.344;16.858;2022-09-13T08:36:37;7.50;;;6.45;;
47155;SDS011;32908;52.344;16.858;2022-09-13T08:39:06;6.93;;;5.93;;
47155;SDS011;32908;52.344;16.858;2022-09-13T08:41:48;7.37;;;6.67;;
47155;SDS011;32908;52.344;16.858;2022-09-13T08:44:29;7.83;;;6.13;;
47155;SDS011;32908;52.344;16.858;2022-09-13T08:47:03;7.83;;;6.00;;
47155;SDS011;32908;52.344;16.858;2022-09-13T08:49:42;7.67;;;6.00;;
47155;SDS011;32908;52.344;16.858;2022-09-13T08:52:15;6.63;;;5.30;;
47155;SDS011;32908;52.344;16.858;2022-09-13T08:54:48;6.90;;;5.60;;
47155;SDS011;32908;52.344;16.858;2022-09-13T08:57:18;6.57;;;4.93;;
47155;SDS011;32908;52.344;16.858;2022-09-13T08:59:53;6.67;;;5.73;;
47155;SDS011;32908;52.344;16.858;2022-09-13T09:02:38;6.23;;;5.60;;
47155;SDS011;32908;52.344;16.858;2022-09-13T09:05:15;8.55;;;5.40;;
47155;SDS011;32908;52.344;16.858;2022-09-13T09:07:45;6.83;;;5.90;;
47155;SDS011;32908;52.344;16.858;2022-09-13T09:10:18;6.77;;;5.77;;
47155;SDS011;32908;52.344;16.858;2022-09-13T09:12:48;7.80;;;5.57;;
47155;SDS011;32908;52.344;16.858;2022-09-13T09:15:18;8.10;;;6.20;;
47155;SDS011;32908;52.344;16.858;2022-09-13T09:17:50;7.30;;;5.85;;
47155;SDS011;32908;52.344;16.858;2022-09-13T09:20:26;7.20;;;6.10;;
47155;SDS011;32908;52.344;16.858;2022-09-13T09:22:58;6.37;;;5.73;;
47155;SDS011;32908;52.344;16.858;2022-09-13T09:25:29;7.17;;;5.73;;
47155;SDS011;32908;52.344;16.858;2022-09-13T09:27:57;6.97;;;6.17;;
47155;SDS011;32908;52.344;16.858;2022-09-13T09:30:27;6.43;;;5.60;;
47155;SDS011;32908;52.344;16.858;2022-09-13T09:33:08;8.97;;;5.93;;
47155;SDS011;32908;52.344;16.858;2022-09-13T09:35:46;9.93;;;6.33;;
47155;SDS011;32908;52.344;16.858;2022-09-13T09:38:34;9.00;;;6.60;;
47155;SDS011;32908;52.344;16.858;2022-09-13T09:41:04;8.20;;;5.97;;
47155;SDS011;32908;52.344;16.858;2022-09-13T09:43:37;8.00;;;6.30;;
47155;SDS011;32908;52.344;16.858;2022-09-13T09:46:07;9.13;;;6.53;;
47155;SDS011;32908;52.344;16.858;2022-09-13T09:48:39;10.70;;;7.50;;
47155;SDS011;32908;52.344;16.858;2022-09-13T09:51:09;9.07;;;7.87;;
47155;SDS011;32908;52.344;16.858;2022-09-13T09:53:39;8.43;;;6.87;;
47155;SDS011;32908;52.344;16.858;2022-09-13T09:56:14;9.00;;;6.97;;
47155;SDS011;32908;52.344;16.858;2022-09-13T09:58:48;8.07;;;6.30;;
47155;SDS011;32908;52.344;16.858;2022-09-13T10:01:19;9.80;;;6.50;;
47155;SDS011;32908;52.344;16.858;2022-09-13T10:03:50;7.95;;;6.35;;
47155;SDS011;32908;52.344;16.858;2022-09-13T10:06:20;11.47;;;6.67;;
47155;SDS011;32908;52.344;16.858;2022-09-13T10:08:54;7.75;;;6.90;;
47155;SDS011;32908;52.344;16.858;2022-09-13T10:11:37;11.37;;;6.63;;
47155;SDS011;32908;52.344;16.858;2022-09-13T10:17:04;7.80;;;5.90;;
47155;SDS011;32908;52.344;16.858;2022-09-13T10:19:53;7.17;;;6.17;;
47155;SDS011;32908;52.344;16.858;2022-09-13T10:22:24;7.93;;;6.20;;
47155;SDS011;32908;52.344;16.858;2022-09-13T10:24:52;7.43;;;6.17;;
47155;SDS011;32908;52.344;16.858;2022-09-13T10:27:21;9.60;;;6.00;;
47155;SDS011;32908;52.344;16.858;2022-09-13T10:29:55;7.17;;;5.67;;
47155;SDS011;32908;52.344;16.858;2022-09-13T10:32:25;6.63;;;5.40;;
47155;SDS011;32908;52.344;16.858;2022-09-13T13:52:55;6.73;;;4.97;;
47155;SDS011;32908;52.344;16.858;2022-09-13T13:55:38;5.83;;;4.67;;
47155;SDS011;32908;52.344;16.858;2022-09-13T13:58:29;5.63;;;4.57;;
47155;SDS011;32908;52.344;16.858;2022-09-13T14:01:03;9.15;;;5.65;;
47155;SDS011;32908;52.344;16.858;2022-09-13T14:03:35;6.30;;;5.53;;
47155;SDS011;32908;52.344;16.858;2022-09-13T14:06:17;10.20;;;6.33;;
47155;SDS011;32908;52.344;16.858;2022-09-13T14:08:53;8.90;;;6.00;;
47155;SDS011;32908;52.344;16.858;2022-09-13T14:11:30;8.10;;;5.67;;
47155;SDS011;32908;52.344;16.858;2022-09-13T14:14:12;6.95;;;6.00;;
47155;SDS011;32908;52.344;16.858;2022-09-13T14:16:52;12.23;;;6.47;;
47155;SDS011;32908;52.344;16.858;2022-09-13T14:19:26;11.33;;;6.70;;
47155;SDS011;32908;52.344;16.858;2022-09-13T14:22:04;8.80;;;6.93;;
47155;SDS011;32908;52.344;16.858;2022-09-13T14:24:35;8.60;;;6.40;;
47155;SDS011;32908;52.344;16.858;2022-09-13T14:27:04;8.90;;;7.13;;
47155;SDS011;32908;52.344;16.858;2022-09-13T14:29:32;9.13;;;7.03;;
47155;SDS011;32908;52.344;16.858;2022-09-13T14:32:04;11.80;;;6.70;;
47155;SDS011;32908;52.344;16.858;2022-09-13T14:34:36;11.23;;;7.00;;
47155;SDS011;32908;52.344;16.858;2022-09-13T14:37:05;7.15;;;6.25;;
47155;SDS011;32908;52.344;16.858;2022-09-13T14:39:52;8.00;;;6.50;;
47155;SDS011;32908;52.344;16.858;2022-09-13T14:42:21;6.53;;;5.53;;
47155;SDS011;32908;52.344;16.858;2022-09-13T14:44:49;7.97;;;6.00;;
47155;SDS011;32908;52.344;16.858;2022-09-13T14:47:18;7.87;;;6.50;;
47155;SDS011;32908;52.344;16.858;2022-09-13T14:49:52;8.60;;;7.80;;
47155;SDS011;32908;52.344;16.858;2022-09-13T14:52:24;9.03;;;7.60;;
47155;SDS011;32908;52.344;16.858;2022-09-13T14:54:56;9.40;;;7.23;;
47155;SDS011;32908;52.344;16.858;2022-09-13T14:57:26;12.40;;;9.47;;
47155;SDS011;32908;52.344;16.858;2022-09-13T14:59:59;11.73;;;10.53;;
47155;SDS011;32908;52.344;16.858;2022-09-13T15:02:34;10.13;;;8.67;;
47155;SDS011;32908;52.344;16.858;2022-09-13T15:05:05;11.40;;;8.55;;
47155;SDS011;32908;52.344;16.858;2022-09-13T15:07:39;12.98;;;9.08;;
47155;SDS011;32908;52.344;16.858;2022-09-13T15:10:18;10.60;;;8.73;;
47155;SDS011;32908;52.344;16.858;2022-09-13T15:12:51;10.57;;;8.50;;
47155;SDS011;32908;52.344;16.858;2022-09-13T15:15:24;10.77;;;9.07;;
47155;SDS011;32908;52.344;16.858;2022-09-13T15:17:58;15.73;;;9.33;;
47155;SDS011;32908;52.344;16.858;2022-09-13T15:20:27;9.60;;;8.43;;
47155;SDS011;32908;52.344;16.858;2022-09-13T15:22:56;11.63;;;9.77;;
47155;SDS011;32908;52.344;16.858;2022-09-13T15:25:25;11.43;;;9.07;;
47155;SDS011;32908;52.344;16.858;2022-09-13T15:27:54;12.20;;;10.70;;
47155;SDS011;32908;52.344;16.858;2022-09-13T15:30:24;15.10;;;10.90;;
47155;SDS011;32908;52.344;16.858;2022-09-13T15:35:44;15.13;;;11.83;;
47155;SDS011;32908;52.344;16.858;2022-09-13T15:38:21;11.37;;;10.10;;
47155;SDS011;32908;52.344;16.858;2022-09-13T15:40:59;11.60;;;10.30;;
47155;SDS011;32908;52.344;16.858;2022-09-13T15:43:28;12.47;;;10.67;;
47155;SDS011;32908;52.344;16.858;2022-09-13T15:45:57;10.93;;;9.83;;
47155;SDS011;32908;52.344;16.858;2022-09-13T15:48:28;11.83;;;10.63;;
47155;SDS011;32908;52.344;16.858;2022-09-13T15:51:04;12.83;;;11.30;;
47155;SDS011;32908;52.344;16.858;2022-09-13T16:19:14;13.10;;;9.63;;
47155;SDS011;32908;52.344;16.858;2022-09-13T16:21:43;14.90;;;10.40;;
47155;SDS011;32908;52.344;16.858;2022-09-13T16:24:11;13.77;;;10.47;;
47155;SDS011;32908;52.344;16.858;2022-09-13T16:26:38;10.70;;;9.60;;
47155;SDS011;32908;52.344;16.858;2022-09-13T16:29:06;13.80;;;10.10;;
47155;SDS011;32908;52.344;16.858;2022-09-13T16:31:35;10.33;;;9.20;;
47155;SDS011;32908;52.344;16.858;2022-09-13T16:34:03;9.67;;;8.67;;
47155;SDS011;32908;52.344;16.858;2022-09-13T16:36:31;12.43;;;9.43;;
47155;SDS011;32908;52.344;16.858;2022-09-13T16:38:59;12.87;;;10.07;;
47155;SDS011;32908;52.344;16.858;2022-09-13T16:41:27;13.37;;;9.73;;
47155;SDS011;32908;52.344;16.858;2022-09-13T16:43:55;11.50;;;10.10;;
47155;SDS011;32908;52.344;16.858;2022-09-13T16:46:23;12.90;;;9.13;;
47155;SDS011;32908;52.344;16.858;2022-09-13T16:48:54;10.87;;;8.97;;
47155;SDS011;32908;52.344;16.858;2022-09-13T16:51:22;12.00;;;10.03;;
47155;SDS011;32908;52.344;16.858;2022-09-13T16:53:50;14.13;;;11.70;;
47155;SDS011;32908;52.344;16.858;2022-09-13T16:56:19;13.63;;;10.87;;
47155;SDS011;32908;52.344;16.858;2022-09-13T16:58:48;12.23;;;10.10;;
47155;SDS011;32908;52.344;16.858;2022-09-13T17:01:17;11.53;;;9.90;;
47155;SDS011;32908;52.344;16.858;2022-09-13T17:03:46;11.03;;;9.30;;
47155;SDS011;32908;52.344;16.858;2022-09-13T17:06:15;10.57;;;9.17;;
47155;SDS011;32908;52.344;16.858;2022-09-13T17:08:46;10.20;;;9.10;;
47155;SDS011;32908;52.344;16.858;2022-09-13T17:11:17;10.27;;;8.37;;
47155;SDS011;32908;52.344;16.858;2022-09-13T17:13:46;10.33;;;9.20;;
47155;SDS011;32908;52.344;16.858;2022-09-13T17:16:23;13.53;;;10.47;;
47155;SDS011;32908;52.344;16.858;2022-09-13T17:18:53;11.30;;;9.97;;
47155;SDS011;32908;52.344;16.858;2022-09-13T17:21:22;11.20;;;10.00;;
47155;SDS011;32908;52.344;16.858;2022-09-13T17:23:51;13.40;;;10.13;;
47155;SDS011;32908;52.344;16.858;2022-09-13T17:26:19;12.57;;;10.20;;
47155;SDS011;32908;52.344;16.858;2022-09-13T17:28:47;13.93;;;10.90;;
47155;SDS011;32908;52.344;16.858;2022-09-13T17:31:15;15.10;;;12.17;;
47155;SDS011;32908;52.344;16.858;2022-09-13T17:33:43;17.57;;;13.13;;
47155;SDS011;32908;52.344;16.858;2022-09-13T17:36:11;15.37;;;12.83;;
47155;SDS011;32908;52.344;16.858;2022-09-13T17:38:40;15.57;;;12.90;;
47155;SDS011;32908;52.344;16.858;2022-09-13T17:41:09;19.23;;;13.70;;
47155;SDS011;32908;52.344;16.858;2022-09-13T17:43:38;17.20;;;13.17;;
47155;SDS011;32908;52.344;16.858;2022-09-13T17:46:08;15.37;;;11.87;;
47155;SDS011;32908;52.344;16.858;2022-09-13T17:48:37;14.47;;;10.80;;
47155;SDS011;32908;52.344;16.858;2022-09-13T17:51:06;13.57;;;10.23;;
47155;SDS011;32908;52.344;16.858;2022-09-13T17:53:36;12.60;;;11.07;;
47155;SDS011;32908;52.344;16.858;2022-09-13T17:56:05;12.77;;;11.17;;
47155;SDS011;32908;52.344;16.858;2022-09-13T17:58:34;17.37;;;12.47;;
47155;SDS011;32908;52.344;16.858;2022-09-13T18:01:03;17.23;;;12.40;;
47155;SDS011;32908;52.344;16.858;2022-09-13T18:03:31;15.83;;;12.30;;
47155;SDS011;32908;52.344;16.858;2022-09-13T18:06:02;14.45;;;12.40;;
47155;SDS011;32908;52.344;16.858;2022-09-13T18:08:31;15.37;;;12.53;;
47155;SDS011;32908;52.344;16.858;2022-09-13T18:11:01;15.93;;;12.50;;
47155;SDS011;32908;52.344;16.858;2022-09-13T18:13:29;14.97;;;12.53;;
47155;SDS011;32908;52.344;16.858;2022-09-13T18:15:58;14.13;;;12.17;;
47155;SDS011;32908;52.344;16.858;2022-09-13T22:22:07;12.23;;;10.17;;
47155;SDS011;32908;52.344;16.858;2022-09-13T22:24:35;12.57;;;11.03;;
47155;SDS011;32908;52.344;16.858;2022-09-13T22:27:03;11.13;;;9.93;;
47155;SDS011;32908;52.344;16.858;2022-09-13T22:29:32;14.47;;;10.73;;
47155;SDS011;32908;52.344;16.858;2022-09-13T22:32:01;13.63;;;10.73;;
47155;SDS011;32908;52.344;16.858;2022-09-13T22:34:29;11.93;;;10.03;;
47155;SDS011;32908;52.344;16.858;2022-09-13T22:37:00;12.80;;;11.07;;
47155;SDS011;32908;52.344;16.858;2022-09-13T22:39:28;12.73;;;10.17;;
47155;SDS011;32908;52.344;16.858;2022-09-13T22:41:56;12.47;;;10.30;;
47155;SDS011;32908;52.344;16.858;2022-09-13T22:44:24;11.73;;;10.50;;
47155;SDS011;32908;52.344;16.858;2022-09-13T22:46:52;13.93;;;11.40;;
47155;SDS011;32908;52.344;16.858;2022-09-13T22:49:20;13.70;;;11.37;;
47155;SDS011;32908;52.344;16.858;2022-09-13T22:51:49;13.57;;;11.33;;
47155;SDS011;32908;52.344;16.858;2022-09-13T22:54:17;14.93;;;11.77;;
47155;SDS011;32908;52.344;16.858;2022-09-13T22:56:45;13.23;;;11.13;;
47155;SDS011;32908;52.344;16.858;2022-09-13T22:59:15;13.97;;;10.23;;
47155;SDS011;32908;52.344;16.858;2022-09-13T23:01:44;11.40;;;10.13;;
47155;SDS011;32908;52.344;16.858;2022-09-13T23:04:12;12.03;;;10.73;;
47155;SDS011;32908;52.344;16.858;2022-09-13T23:06:41;12.83;;;10.97;;
47155;SDS011;32908;52.344;16.858;2022-09-13T23:09:10;12.67;;;10.57;;
47155;SDS011;32908;52.344;16.858;2022-09-13T23:11:41;12.97;;;10.23;;
47155;SDS011;32908;52.344;16.858;2022-09-13T23:14:10;13.13;;;10.40;;
47155;SDS011;32908;52.344;16.858;2022-09-13T23:16:40;12.13;;;10.10;;
47155;SDS011;32908;52.344;16.858;2022-09-13T23:19:09;12.80;;;10.63;;
47155;SDS011;32908;52.344;16.858;2022-09-13T23:21:38;13.27;;;11.43;;
47155;SDS011;32908;52.344;16.858;2022-09-13T23:24:08;14.90;;;10.30;;
47155;SDS011;32908;52.344;16.858;2022-09-13T23:26:37;11.93;;;10.37;;
47155;SDS011;32908;52.344;16.858;2022-09-13T23:29:06;13.17;;;11.30;;
47155;SDS011;32908;52.344;16.858;2022-09-13T23:31:38;14.23;;;11.07;;
47155;SDS011;32908;52.344;16.858;2022-09-13T23:34:06;12.47;;;10.73;;
47155;SDS011;32908;52.344;16.858;2022-09-13T23:36:36;11.97;;;10.00;;
47155;SDS011;32908;52.344;16.858;2022-09-13T23:39:07;13.43;;;10.27;;
47155;SDS011;32908;52.344;16.858;2022-09-13T23:41:45;14.30;;;11.23;;
47155;SDS011;32908;52.344;16.858;2022-09-13T23:44:14;12.67;;;9.50;;
47155;SDS011;32908;52.344;16.858;2022-09-13T23:46:42;14.17;;;10.17;;
47155;SDS011;32908;52.344;16.858;2022-09-13T23:49:10;12.77;;;9.80;;
47155;SDS011;32908;52.344;16.858;2022-09-13T23:51:38;12.97;;;9.40;;
47155;SDS011;32908;52.344;16.858;2022-09-13T23:54:06;13.73;;;11.03;;
47155;SDS011;32908;52.344;16.858;2022-09-13T23:56:35;11.60;;;9.93;;
47155;SDS011;32908;52.344;16.858;2022-09-13T23:59:03;12.03;;;10.10;;
